createdAt,value
2018-10-12T00:00:08.890Z,82.08
2018-10-12T00:02:36.302Z,82.34
2018-10-12T00:05:04.080Z,82.35
2018-10-12T00:07:31.562Z,82.46
2018-10-12T00:09:59.031Z,81.92
2018-10-12T00:12:26.785Z,82.38
2018-10-12T00:14:54.225Z,82.25
2018-10-12T00:17:21.685Z,82.01
2018-10-12T00:19:49.401Z,82.04
2018-10-12T00:22:16.875Z,82.23
2018-10-12T00:24:44.348Z,82.36
2018-10-12T00:27:11.971Z,81.99
2018-10-12T00:29:39.460Z,82.09
2018-10-12T00:32:07.145Z,82.27
2018-10-12T00:34:34.731Z,82.28
2018-10-12T00:37:02.174Z,82.11
2018-10-12T00:39:29.647Z,82.49
2018-10-12T00:41:57.491Z,82.46
2018-10-12T00:44:24.900Z,82.30
2018-10-12T00:46:52.390Z,82.28
2018-10-12T00:49:19.920Z,82.34
2018-10-12T00:51:47.442Z,82.39
2018-10-12T00:54:14.922Z,82.29
2018-10-12T00:56:42.624Z,82.65
2018-10-12T00:59:10.105Z,82.33
2018-10-12T01:01:37.596Z,82.25
2018-10-12T01:04:05.370Z,82.22
2018-10-12T01:06:32.860Z,82.19
2018-10-12T01:09:00.402Z,82.22
2018-10-12T01:11:28.189Z,82.64
2018-10-12T01:13:55.824Z,82.48
2018-10-12T01:16:23.347Z,82.62
2018-10-12T01:18:51.010Z,82.43
2018-10-12T01:21:18.625Z,82.71
2018-10-12T01:23:46.152Z,82.36
2018-10-12T01:26:13.769Z,82.34
2018-10-12T01:28:41.297Z,82.51
2018-10-12T01:31:08.831Z,82.09
2018-10-12T01:33:36.479Z,82.53
2018-10-12T01:36:03.996Z,82.43
2018-10-12T01:38:31.442Z,82.43
2018-10-12T01:40:59.132Z,82.02
2018-10-12T01:43:26.869Z,82.02
2018-10-12T01:45:54.294Z,82.24
2018-10-12T01:48:21.824Z,82.52
2018-10-12T01:50:49.336Z,82.07
2018-10-12T01:53:16.815Z,82.36
2018-10-12T01:55:44.466Z,82.33
2018-10-12T01:58:11.912Z,82.07
2018-10-12T02:00:39.408Z,82.17
2018-10-12T02:03:07.057Z,82.07
2018-10-12T02:05:34.544Z,82.23
2018-10-12T02:08:01.954Z,82.30
2018-10-12T02:10:29.598Z,82.14
2018-10-12T02:12:57.108Z,81.97
2018-10-12T02:15:24.577Z,82.39
2018-10-12T02:17:52.319Z,82.17
2018-10-12T02:20:19.770Z,82.39
2018-10-12T02:22:47.178Z,82.37
2018-10-12T02:25:14.806Z,82.30
2018-10-12T02:27:42.251Z,82.58
2018-10-12T02:30:10.059Z,82.08
2018-10-12T02:32:37.752Z,82.31
2018-10-12T02:35:05.596Z,82.24
2018-10-12T02:37:33.172Z,82.12
2018-10-12T02:40:00.797Z,82.18
2018-10-12T02:42:28.273Z,82.25
2018-10-12T02:44:55.965Z,82.77
2018-10-12T02:47:23.652Z,82.15
2018-10-12T02:49:51.116Z,82.46
2018-10-12T02:52:18.638Z,82.40
2018-10-12T02:54:46.259Z,82.35
2018-10-12T02:57:13.788Z,82.25
2018-10-12T02:59:41.327Z,82.51
2018-10-12T03:02:09.064Z,82.31
2018-10-12T03:04:36.515Z,82.61
2018-10-12T03:07:04.023Z,82.60
2018-10-12T03:09:31.598Z,82.20
2018-10-12T03:11:59.075Z,82.66
2018-10-12T03:14:26.621Z,82.56
2018-10-12T03:16:54.204Z,82.32
2018-10-12T03:19:21.727Z,82.54
2018-10-12T03:21:49.254Z,82.70
2018-10-12T03:24:16.966Z,82.73
2018-10-12T03:26:44.390Z,82.79
2018-10-12T03:29:11.991Z,82.49
2018-10-12T03:31:39.678Z,82.59
2018-10-12T03:34:07.223Z,82.83
2018-10-12T03:36:35.001Z,82.73
2018-10-12T03:39:03.302Z,82.49
2018-10-12T03:41:30.794Z,82.79
2018-10-12T03:43:58.273Z,82.47
2018-10-12T03:46:26.068Z,82.54
2018-10-12T03:48:53.570Z,82.78
2018-10-12T03:51:21.086Z,82.34
2018-10-12T03:53:48.600Z,82.45
2018-10-12T03:56:16.108Z,82.29
2018-10-12T03:58:43.711Z,82.27
2018-10-12T04:01:11.372Z,82.41
2018-10-12T04:03:38.804Z,82.50
2018-10-12T04:06:06.274Z,82.50
2018-10-12T04:08:34.061Z,82.41
2018-10-12T04:11:01.531Z,82.24
2018-10-12T04:13:28.982Z,82.21
2018-10-12T04:15:56.559Z,81.81
2018-10-12T04:18:24.356Z,82.23
2018-10-12T04:20:51.829Z,82.03
2018-10-12T04:23:19.375Z,82.23
2018-10-12T04:25:46.768Z,82.43
2018-10-12T04:28:14.373Z,82.57
2018-10-12T04:30:42.077Z,82.24
2018-10-12T04:33:09.492Z,82.25
2018-10-12T04:35:36.976Z,81.89
2018-10-12T04:38:04.798Z,82.33
2018-10-12T04:41:10.160Z,82.10
2018-10-12T04:43:37.963Z,82.16
2018-10-12T04:46:06.810Z,82.36
2018-10-12T04:48:35.299Z,82.41
2018-10-12T04:51:04.045Z,82.52
2018-10-12T04:53:31.735Z,82.70
2018-10-12T04:55:59.212Z,82.01
2018-10-12T04:58:26.806Z,82.54
2018-10-12T05:00:54.426Z,82.56
2018-10-12T05:03:21.987Z,82.02
2018-10-12T05:05:49.619Z,82.44
2018-10-12T05:08:17.061Z,82.31
2018-10-12T05:10:44.552Z,82.47
2018-10-12T05:13:12.168Z,82.35
2018-10-12T05:15:39.768Z,82.33
2018-10-12T05:18:07.385Z,82.33
2018-10-12T05:20:34.981Z,82.29
2018-10-12T05:23:02.465Z,82.68
2018-10-12T05:25:29.994Z,82.71
2018-10-12T05:27:57.684Z,82.58
2018-10-12T05:30:25.135Z,82.52
2018-10-12T05:32:52.618Z,82.37
2018-10-12T05:35:20.226Z,82.73
2018-10-12T05:37:47.733Z,82.45
2018-10-12T05:40:15.219Z,82.66
2018-10-12T05:42:42.960Z,82.36
2018-10-12T05:45:10.387Z,82.79
2018-10-12T05:47:37.867Z,83.00
2018-10-12T05:50:07.518Z,83.09
2018-10-12T05:52:35.641Z,82.77
2018-10-12T05:55:03.255Z,83.15
2018-10-12T05:57:31.938Z,83.22
2018-10-12T05:59:59.451Z,82.90
2018-10-12T06:02:27.043Z,83.05
2018-10-12T06:04:54.768Z,82.93
2018-10-12T06:07:22.348Z,83.22
2018-10-12T06:09:50.072Z,83.51
2018-10-12T06:12:17.971Z,83.16
2018-10-12T06:14:45.472Z,83.10
2018-10-12T06:17:12.969Z,83.15
2018-10-12T06:19:40.507Z,83.08
2018-10-12T06:22:08.158Z,83.29
2018-10-12T06:24:35.554Z,83.45
2018-10-12T06:27:03.237Z,83.35
2018-10-12T06:29:30.791Z,83.49
2018-10-12T06:31:58.324Z,83.15
2018-10-12T06:34:25.886Z,83.31
2018-10-12T06:36:53.356Z,82.99
2018-10-12T06:39:20.825Z,83.04
2018-10-12T06:41:48.551Z,83.64
2018-10-12T06:44:16.039Z,83.25
2018-10-12T06:46:43.517Z,83.31
2018-10-12T06:49:11.234Z,83.37
2018-10-12T06:51:38.957Z,83.22
2018-10-12T06:54:06.516Z,83.28
2018-10-12T06:56:34.143Z,83.28
2018-10-12T06:59:01.755Z,83.58
2018-10-12T07:01:29.571Z,83.19
2018-10-12T07:03:57.501Z,82.96
2018-10-12T07:06:25.019Z,83.15
2018-10-12T07:08:52.557Z,83.02
2018-10-12T07:11:20.116Z,83.34
2018-10-12T07:13:48.523Z,83.41
2018-10-12T07:16:16.218Z,83.01
2018-10-12T07:18:43.979Z,83.14
2018-10-12T07:21:11.403Z,83.11
2018-10-12T07:23:38.876Z,83.00
2018-10-12T07:26:06.781Z,83.06
2018-10-12T07:28:34.280Z,83.28
2018-10-12T07:31:01.689Z,83.53
2018-10-12T07:33:29.307Z,83.36
2018-10-12T07:35:56.786Z,83.04
2018-10-12T07:38:24.420Z,83.55
2018-10-12T07:40:52.095Z,83.44
2018-10-12T07:43:19.581Z,83.61
2018-10-12T07:45:47.120Z,83.04
2018-10-12T07:48:14.886Z,83.36
2018-10-12T07:50:42.423Z,82.91
2018-10-12T07:55:52.353Z,83.21
2018-10-12T07:58:19.876Z,83.17
2018-10-12T08:00:47.421Z,83.02
2018-10-12T08:03:15.156Z,83.17
2018-10-12T08:05:42.659Z,83.54
2018-10-12T08:08:10.099Z,83.42
2018-10-12T08:10:37.824Z,82.96
2018-10-12T08:13:05.398Z,83.07
2018-10-12T08:15:32.993Z,82.93
2018-10-12T08:18:00.748Z,82.86
2018-10-12T08:20:28.388Z,83.01
2018-10-12T08:22:55.782Z,83.06
2018-10-12T08:25:23.537Z,82.82
2018-10-12T08:27:51.140Z,83.05
2018-10-12T08:30:18.621Z,82.99
2018-10-12T08:32:46.406Z,83.18
2018-10-12T08:35:13.983Z,83.38
2018-10-12T08:37:41.370Z,83.14
2018-10-12T08:40:09.094Z,82.72
2018-10-12T08:42:36.563Z,83.01
2018-10-12T08:45:04.195Z,82.90
2018-10-12T08:47:31.841Z,82.81
2018-10-12T08:49:59.284Z,82.82
2018-10-12T08:52:26.756Z,82.79
2018-10-12T08:54:54.530Z,82.75
2018-10-12T08:57:22.056Z,82.67
2018-10-12T08:59:49.536Z,82.95
2018-10-12T09:02:17.248Z,82.62
2018-10-12T09:04:44.881Z,82.94
2018-10-12T09:07:12.386Z,82.57
2018-10-12T09:09:40.116Z,82.35
2018-10-12T09:12:07.557Z,82.81
2018-10-12T09:14:35.052Z,82.49
2018-10-12T09:17:02.738Z,82.84
2018-10-12T09:19:30.188Z,82.65
2018-10-12T09:21:57.756Z,82.54
2018-10-12T09:24:25.364Z,82.13
2018-10-12T09:26:52.844Z,82.35
2018-10-12T09:29:20.424Z,82.29
2018-10-12T09:31:48.183Z,82.34
2018-10-12T09:34:15.659Z,82.65
2018-10-12T09:36:43.220Z,82.28
2018-10-12T09:39:10.808Z,82.53
2018-10-12T09:41:38.260Z,82.45
2018-10-12T09:44:05.693Z,82.09
2018-10-12T09:46:33.408Z,82.44
2018-10-12T09:49:00.892Z,82.17
2018-10-12T09:51:28.406Z,82.04
2018-10-12T09:53:55.923Z,82.30
2018-10-12T09:56:23.362Z,82.27
2018-10-12T09:58:50.855Z,82.14
2018-10-12T10:01:23.949Z,81.84
2018-10-12T10:03:56.831Z,81.80
2018-10-12T10:06:24.746Z,81.76
2018-10-12T10:08:52.202Z,81.99
2018-10-12T10:11:19.677Z,81.85
2018-10-12T10:13:47.249Z,81.77
2018-10-12T10:16:14.763Z,81.95
2018-10-12T10:18:42.250Z,82.11
2018-10-12T10:21:09.909Z,81.87
2018-10-12T10:23:37.421Z,81.86
2018-10-12T10:26:04.961Z,81.71
2018-10-12T10:28:32.641Z,81.55
2018-10-12T10:31:00.108Z,81.58
2018-10-12T10:33:27.576Z,81.44
2018-10-12T10:35:55.155Z,81.32
2018-10-12T10:38:22.650Z,81.23
2018-10-12T10:40:50.121Z,81.16
2018-10-12T10:43:17.870Z,81.06
2018-10-12T10:45:45.357Z,81.12
2018-10-12T10:48:12.835Z,81.50
2018-10-12T10:50:40.541Z,81.11
2018-10-12T10:53:08.080Z,81.09
2018-10-12T10:55:35.486Z,80.86
2018-10-12T10:58:03.054Z,80.94
2018-10-12T11:00:30.549Z,81.29
2018-10-12T11:02:57.999Z,80.96
2018-10-12T11:05:25.846Z,80.85
2018-10-12T11:07:53.452Z,81.22
2018-10-12T11:10:21.020Z,81.09
2018-10-12T11:12:48.789Z,80.74
2018-10-12T11:15:16.299Z,81.09
2018-10-12T11:17:43.796Z,80.73
2018-10-12T11:20:11.521Z,80.91
2018-10-12T11:22:39.003Z,80.60
2018-10-12T11:25:06.688Z,80.57
2018-10-12T11:27:34.268Z,80.90
2018-10-12T11:30:01.697Z,80.72
2018-10-12T11:32:29.196Z,80.21
2018-10-12T11:34:56.879Z,80.41
2018-10-12T11:37:24.473Z,80.50
2018-10-12T11:39:51.917Z,80.54
2018-10-12T11:42:19.572Z,80.18
2018-10-12T11:44:47.089Z,80.69
2018-10-12T11:47:14.510Z,80.23
2018-10-12T11:49:42.219Z,80.76
2018-10-12T11:52:09.715Z,80.80
2018-10-12T11:54:37.142Z,80.79
2018-10-12T11:57:04.864Z,80.52
2018-10-12T11:59:32.292Z,80.52
2018-10-12T12:01:59.847Z,80.49
2018-10-12T12:04:27.598Z,80.41
2018-10-12T12:06:55.107Z,80.23
2018-10-12T12:09:22.878Z,80.34
2018-10-12T12:11:50.462Z,80.38
2018-10-12T12:14:17.849Z,80.62
2018-10-12T12:16:45.337Z,80.25
2018-10-12T12:19:13.073Z,80.63
2018-10-12T12:21:40.604Z,80.10
2018-10-12T12:24:08.104Z,80.30
2018-10-12T12:26:35.792Z,80.53
2018-10-12T12:29:03.254Z,80.09
2018-10-12T12:31:30.687Z,80.05
2018-10-12T12:33:58.350Z,80.01
2018-10-12T12:36:25.884Z,80.19
2018-10-12T12:38:53.336Z,80.20
2018-10-12T12:41:21.037Z,80.45
2018-10-12T12:43:48.471Z,80.22
2018-10-12T12:46:16.194Z,80.02
2018-10-12T12:48:44.137Z,80.20
2018-10-12T12:51:12.144Z,80.16
2018-10-12T12:53:39.694Z,80.19
2018-10-12T12:56:07.829Z,80.32
2018-10-12T12:58:35.317Z,79.96
2018-10-12T13:01:02.817Z,80.31
2018-10-12T13:03:30.491Z,80.38
2018-10-12T13:05:57.945Z,80.40
2018-10-12T13:08:25.515Z,80.35
2018-10-12T13:10:53.250Z,80.19
2018-10-12T13:13:21.115Z,80.46
2018-10-12T13:15:48.640Z,80.58
2018-10-12T13:18:16.271Z,80.32
2018-10-12T13:20:43.790Z,80.33
2018-10-12T13:23:11.279Z,80.04
2018-10-12T13:25:39.021Z,80.42
2018-10-12T13:28:06.541Z,80.32
2018-10-12T13:30:33.998Z,80.31
2018-10-12T13:33:01.644Z,80.30
2018-10-12T13:35:29.141Z,80.70
2018-10-12T13:37:56.627Z,80.61
2018-10-12T13:40:24.599Z,80.67
2018-10-12T13:42:52.082Z,80.32
2018-10-12T13:45:19.512Z,80.51
2018-10-12T13:47:47.177Z,80.58
2018-10-12T13:50:14.656Z,80.42
2018-10-12T13:52:42.121Z,80.49
2018-10-12T13:55:09.814Z,80.75
2018-10-12T13:57:37.242Z,80.73
2018-10-12T14:00:04.716Z,80.36
2018-10-12T14:02:32.457Z,80.46
2018-10-12T14:04:59.870Z,81.03
2018-10-12T14:07:27.343Z,80.98
2018-10-12T14:09:54.935Z,80.89
2018-10-12T14:12:22.654Z,80.92
2018-10-12T14:14:50.099Z,81.18
2018-10-12T14:17:17.711Z,81.49
2018-10-12T14:19:45.353Z,81.57
2018-10-12T14:22:12.840Z,81.90
2018-10-12T14:24:40.485Z,81.68
2018-10-12T14:27:08.843Z,81.60
2018-10-12T14:29:36.338Z,81.79
2018-10-12T14:32:04.011Z,81.68
2018-10-12T14:34:31.537Z,81.54
2018-10-12T14:36:58.965Z,81.84
2018-10-12T14:39:26.459Z,81.55
2018-10-12T14:41:53.979Z,81.51
2018-10-12T14:44:21.620Z,82.17
2018-10-12T14:46:49.201Z,82.19
2018-10-12T14:49:16.745Z,82.07
2018-10-12T14:51:44.498Z,82.03
2018-10-12T14:54:12.252Z,81.91
2018-10-12T14:56:39.753Z,81.77
2018-10-12T14:59:07.270Z,82.04
2018-10-12T15:01:35.016Z,82.13
2018-10-12T15:04:02.550Z,82.05
2018-10-12T15:06:30.091Z,82.01
2018-10-12T15:08:57.675Z,82.34
2018-10-12T15:11:25.184Z,82.49
2018-10-12T15:13:52.924Z,82.10
2018-10-12T15:16:20.556Z,82.41
2018-10-12T15:18:48.019Z,82.51
2018-10-12T15:21:15.601Z,82.63
2018-10-12T15:23:43.278Z,82.45
2018-10-12T15:26:10.762Z,82.68
2018-10-12T15:28:38.268Z,82.48
2018-10-12T15:31:05.938Z,82.77
2018-10-12T15:33:33.457Z,82.56
2018-10-12T15:36:01.014Z,82.27
2018-10-12T15:38:28.618Z,82.89
2018-10-12T15:40:56.208Z,82.18
2018-10-12T15:43:23.677Z,82.63
2018-10-12T15:45:51.279Z,82.50
2018-10-12T15:48:18.725Z,82.38
2018-10-12T15:50:46.202Z,82.59
2018-10-12T15:53:13.900Z,82.68
2018-10-12T15:55:41.399Z,83.00
2018-10-12T15:58:08.959Z,82.82
2018-10-12T16:00:36.594Z,82.79
2018-10-12T16:03:04.108Z,82.66
2018-10-12T16:05:31.620Z,82.69
2018-10-12T16:07:59.951Z,83.01
2018-10-12T16:10:27.584Z,82.68
2018-10-12T16:12:55.063Z,83.00
2018-10-12T16:15:22.806Z,83.02
2018-10-12T16:17:50.360Z,82.62
2018-10-12T16:20:17.790Z,82.88
2018-10-12T16:22:45.534Z,82.69
2018-10-12T16:25:24.288Z,83.14
2018-10-12T16:27:51.920Z,82.98
2018-10-12T16:30:19.369Z,83.09
2018-10-12T16:32:46.823Z,82.91
2018-10-12T16:35:14.553Z,82.82
2018-10-12T16:37:41.951Z,82.48
2018-10-12T16:40:09.429Z,82.46
2018-10-12T16:42:37.369Z,82.87
2018-10-12T16:45:04.917Z,82.58
2018-10-12T16:47:32.406Z,82.84
2018-10-12T16:50:00.075Z,82.83
2018-10-12T16:52:27.807Z,82.42
2018-10-12T16:54:55.286Z,82.53
2018-10-12T16:57:25.771Z,82.54
2018-10-12T16:59:53.433Z,82.67
2018-10-12T17:02:20.940Z,82.72
2018-10-12T17:04:48.659Z,82.65
2018-10-12T17:07:16.154Z,82.23
2018-10-12T17:09:43.598Z,82.42
2018-10-12T17:12:11.188Z,82.23
2018-10-12T17:14:38.681Z,82.63
2018-10-12T17:17:06.551Z,82.62
2018-10-12T17:19:34.168Z,83.01
2018-10-12T17:22:01.599Z,82.68
2018-10-12T17:24:29.082Z,82.99
2018-10-12T17:26:56.767Z,82.89
2018-10-12T17:29:24.209Z,82.50
2018-10-12T17:31:51.655Z,82.58
2018-10-12T17:34:19.400Z,82.83
2018-10-12T17:36:46.857Z,82.46
2018-10-12T17:39:14.257Z,83.01
2018-10-12T17:41:41.897Z,82.75
2018-10-12T17:44:09.366Z,82.90
2018-10-12T17:46:36.838Z,82.76
2018-10-12T17:49:04.402Z,82.95
2018-10-12T17:51:31.854Z,83.14
2018-10-12T17:53:59.492Z,83.11
2018-10-12T17:56:27.177Z,82.94
2018-10-12T17:58:54.627Z,83.06
2018-10-12T18:01:22.094Z,83.07
2018-10-12T18:03:49.620Z,83.20
2018-10-12T18:06:17.088Z,83.23
2018-10-12T18:08:44.637Z,83.18
2018-10-12T18:11:12.238Z,83.04
2018-10-12T18:13:39.725Z,82.97
2018-10-12T18:16:07.311Z,83.55
2018-10-12T18:18:34.892Z,83.09
2018-10-12T18:21:02.393Z,83.62
2018-10-12T18:23:29.868Z,83.56
2018-10-12T18:25:57.628Z,83.49
2018-10-12T18:28:24.967Z,83.43
2018-10-12T18:30:52.389Z,83.22
2018-10-12T18:33:19.997Z,83.43
2018-10-12T18:35:47.422Z,83.69
2018-10-12T18:38:14.873Z,83.31
2018-10-12T18:40:42.563Z,83.59
2018-10-12T18:43:10.063Z,83.67
2018-10-12T18:45:37.494Z,83.49
2018-10-12T18:48:05.357Z,83.66
2018-10-12T18:50:32.864Z,83.51
2018-10-12T18:53:00.463Z,83.72
2018-10-12T18:55:28.339Z,83.60
2018-10-12T18:57:55.834Z,83.45
2018-10-12T19:00:23.267Z,83.47
2018-10-12T19:02:50.892Z,83.47
2018-10-12T19:05:18.471Z,83.44
2018-10-12T19:07:45.911Z,83.54
2018-10-12T19:10:13.508Z,83.24
2018-10-12T19:12:41.002Z,83.33
2018-10-12T19:15:08.664Z,83.85
2018-10-12T19:17:36.254Z,83.95
2018-10-12T19:20:03.890Z,83.44
2018-10-12T19:22:31.393Z,83.66
2018-10-12T19:24:58.964Z,83.32
2018-10-12T19:27:26.610Z,83.55
2018-10-12T19:29:54.074Z,83.37
2018-10-12T19:32:21.717Z,83.53
2018-10-12T19:34:49.257Z,83.71
2018-10-12T19:37:16.705Z,83.79
2018-10-12T19:39:44.349Z,83.66
2018-10-12T19:42:12.110Z,83.49
2018-10-12T19:44:39.555Z,83.53
2018-10-12T19:47:07.337Z,83.64
2018-10-12T19:49:34.799Z,83.30
2018-10-12T19:52:02.283Z,83.70
2018-10-12T19:54:29.885Z,83.47
2018-10-12T19:56:57.434Z,83.68
2018-10-12T19:59:24.930Z,83.55
2018-10-12T20:01:52.500Z,83.30
2018-10-12T20:04:19.956Z,83.42
2018-10-12T20:06:47.447Z,83.72
2018-10-12T20:09:15.076Z,83.50
2018-10-12T20:11:42.544Z,83.71
2018-10-12T20:14:10.028Z,83.73
2018-10-12T20:16:37.842Z,83.42
2018-10-12T20:19:05.641Z,83.34
2018-10-12T20:21:33.094Z,83.68
2018-10-12T20:24:00.657Z,83.49
2018-10-12T20:26:28.044Z,83.40
2018-10-12T20:28:55.552Z,83.34
2018-10-12T20:31:23.264Z,83.12
2018-10-12T20:33:50.824Z,83.22
2018-10-12T20:36:18.288Z,82.97
2018-10-12T20:38:46.021Z,82.70
2018-10-12T20:41:13.531Z,82.92
2018-10-12T20:43:41.007Z,82.82
2018-10-12T20:46:08.658Z,82.91
2018-10-12T20:48:36.149Z,82.95
2018-10-12T20:51:03.683Z,82.86
2018-10-12T20:53:31.403Z,82.73
2018-10-12T20:55:58.862Z,83.05
2018-10-12T20:58:26.473Z,82.68
2018-10-12T21:00:54.132Z,82.79
2018-10-12T21:03:21.609Z,82.47
2018-10-12T21:05:49.094Z,82.77
2018-10-12T21:08:16.710Z,82.67
2018-10-12T21:10:44.412Z,82.46
2018-10-12T21:13:11.934Z,82.53
2018-10-12T21:15:39.564Z,82.53
2018-10-12T21:18:07.052Z,82.43
2018-10-12T21:20:34.566Z,82.82
2018-10-12T21:23:02.191Z,82.57
2018-10-12T21:25:29.633Z,83.02
2018-10-12T21:27:57.157Z,82.65
2018-10-12T21:30:24.809Z,83.00
2018-10-12T21:32:52.285Z,82.46
2018-10-12T21:35:19.701Z,82.63
2018-10-12T21:37:47.255Z,82.67
2018-10-12T21:40:14.740Z,82.72
2018-10-12T21:42:42.179Z,82.20
2018-10-12T21:45:09.760Z,82.65
2018-10-12T21:47:37.221Z,82.65
2018-10-12T21:50:04.745Z,82.39
2018-10-12T21:52:32.277Z,82.35
2018-10-12T21:55:06.436Z,82.23
2018-10-12T21:57:34.055Z,81.85
2018-10-12T22:00:01.796Z,82.47
2018-10-12T22:02:29.180Z,82.21
2018-10-12T22:04:56.922Z,82.30
2018-10-12T22:07:24.465Z,82.37
2018-10-12T22:09:51.953Z,81.97
2018-10-12T22:12:19.492Z,82.15
2018-10-12T22:14:47.022Z,82.23
2018-10-12T22:17:14.523Z,81.94
2018-10-12T22:19:42.064Z,81.93
2018-10-12T22:22:09.516Z,82.10
2018-10-12T22:24:36.981Z,82.16
2018-10-12T22:27:04.795Z,81.87
2018-10-12T22:29:32.335Z,82.11
2018-10-12T22:31:59.760Z,82.13
2018-10-12T22:34:27.456Z,81.99
2018-10-12T22:36:54.936Z,81.62
2018-10-12T22:39:22.402Z,81.86
2018-10-12T22:41:50.129Z,81.85
2018-10-12T22:44:17.592Z,81.60
2018-10-12T22:49:19.318Z,82.31
2018-10-12T22:51:46.829Z,82.10
2018-10-12T22:54:14.601Z,81.84
2018-10-12T22:56:42.121Z,81.86
2018-10-12T22:59:09.558Z,82.20
2018-10-12T23:01:37.237Z,82.16
2018-10-12T23:04:04.821Z,82.07
2018-10-12T23:06:32.318Z,81.63
2018-10-12T23:08:59.767Z,82.15
2018-10-12T23:11:27.543Z,82.05
2018-10-12T23:13:55.029Z,82.20
2018-10-12T23:16:22.493Z,82.04
2018-10-12T23:18:50.116Z,82.58
2018-10-12T23:21:17.716Z,82.32
2018-10-12T23:23:45.150Z,82.30
2018-10-12T23:26:12.715Z,82.59
2018-10-12T23:28:40.155Z,82.69
2018-10-12T23:31:07.801Z,82.33
2018-10-12T23:33:46.856Z,82.64
2018-10-12T23:36:14.313Z,82.34
2018-10-12T23:38:41.821Z,82.36
2018-10-12T23:41:09.446Z,82.26
2018-10-12T23:43:36.970Z,82.30
2018-10-12T23:46:04.443Z,82.48
2018-10-12T23:48:32.118Z,82.61
2018-10-12T23:50:59.651Z,82.67
2018-10-12T23:53:27.054Z,82.75
2018-10-12T23:55:54.641Z,82.60
2018-10-12T23:58:22.077Z,82.56
